createdAt,value
2023-01-30T00:00:27.930Z,-2.06
2023-01-30T00:03:30.193Z,-2.05
2023-01-30T00:06:32.359Z,-1.95
2023-01-30T00:09:34.568Z,-2.01
2023-01-30T00:12:36.727Z,-2.09
2023-01-30T00:15:38.672Z,-2.06
2023-01-30T00:18:43.716Z,-2.08
2023-01-30T00:21:45.629Z,-2.08
2023-01-30T00:24:50.275Z,-2.13
2023-01-30T00:27:54.731Z,-2.10
2023-01-30T00:30:58.271Z,-2.08
2023-01-30T00:34:00.301Z,-2.14
2023-01-30T00:37:08.425Z,-2.08
2023-01-30T00:40:11.947Z,-2.14
2023-01-30T00:43:37.855Z,-2.16
2023-01-30T00:46:58.387Z,-2.16
2023-01-30T00:50:01.841Z,-2.29
2023-01-30T00:53:04.089Z,-2.14
2023-01-30T00:56:08.883Z,-2.31
2023-01-30T00:59:12.476Z,-2.18
2023-01-30T01:02:14.441Z,-2.27
2023-01-30T01:05:16.785Z,-2.27
2023-01-30T01:08:20.526Z,-2.27
2023-01-30T01:11:25.157Z,-2.31
2023-01-30T01:14:27.008Z,-2.34
2023-01-30T01:17:29.295Z,-2.24
2023-01-30T01:20:31.281Z,-2.34
2023-01-30T01:23:33.740Z,-2.24
2023-01-30T01:26:36.520Z,-2.34
2023-01-30T01:29:42.321Z,-2.22
2023-01-30T01:32:47.415Z,-2.34
2023-01-30T01:35:49.430Z,-2.25
2023-01-30T01:38:51.379Z,-2.31
2023-01-30T01:41:53.413Z,-2.37
2023-01-30T01:45:13.908Z,-2.22
2023-01-30T01:48:26.939Z,-2.28
2023-01-30T01:51:44.779Z,-2.32
2023-01-30T01:54:55.450Z,-2.30
2023-01-30T01:58:12.057Z,-2.34
2023-01-30T02:01:16.094Z,-2.25
2023-01-30T02:04:38.129Z,-2.34
2023-01-30T02:07:59.560Z,-2.20
2023-01-30T02:11:37.050Z,-2.25
2023-01-30T02:14:43.226Z,-2.36
2023-01-30T02:17:48.492Z,-2.25
2023-01-30T02:21:05.766Z,-2.17
2023-01-30T02:24:07.722Z,-2.18
2023-01-30T02:27:23.941Z,-2.19
2023-01-30T02:30:42.982Z,-2.17
2023-01-30T02:34:13.053Z,-2.20
2023-01-30T02:37:27.214Z,-2.22
2023-01-30T02:40:36.203Z,-2.18
2023-01-30T02:44:03.093Z,-2.15
2023-01-30T02:47:11.763Z,-2.29
2023-01-30T02:50:28.804Z,-2.20
2023-01-30T02:53:34.777Z,-2.20
2023-01-30T02:56:57.902Z,-2.23
2023-01-30T03:00:06.248Z,-2.25
2023-01-30T03:03:45.353Z,-2.16
2023-01-30T03:07:06.509Z,-2.17
2023-01-30T03:10:39.594Z,-2.18
2023-01-30T03:13:56.274Z,-2.17
2023-01-30T03:17:00.613Z,-2.32
2023-01-30T03:20:03.927Z,-2.33
2023-01-30T03:23:06.335Z,-2.24
2023-01-30T03:26:15.687Z,-2.15
2023-01-30T03:29:25.693Z,-2.19
2023-01-30T03:32:28.358Z,-2.11
2023-01-30T03:35:31.612Z,-2.17
2023-01-30T03:38:36.074Z,-2.19
2023-01-30T03:41:41.433Z,-2.14
2023-01-30T03:44:46.603Z,-2.08
2023-01-30T03:47:51.394Z,-2.11
2023-01-30T03:50:56.464Z,-2.02
2023-01-30T03:53:59.979Z,-2.05
2023-01-30T03:57:02.104Z,-1.99
2023-01-30T04:00:05.947Z,-2.07
2023-01-30T04:03:18.067Z,-2.06
2023-01-30T04:06:27.265Z,-2.08
2023-01-30T04:09:29.849Z,-2.02
2023-01-30T04:12:32.121Z,-1.96
2023-01-30T04:15:35.641Z,-2.00
2023-01-30T04:19:06.496Z,-1.99
2023-01-30T04:22:08.838Z,-2.10
2023-01-30T04:25:11.516Z,-2.00
2023-01-30T04:28:14.618Z,-2.10
2023-01-30T04:31:18.932Z,-2.10
2023-01-30T04:34:38.860Z,-2.09
2023-01-30T04:37:41.653Z,-2.02
2023-01-30T04:40:54.938Z,-2.07
2023-01-30T04:43:57.944Z,-2.12
2023-01-30T04:47:07.464Z,-2.08
2023-01-30T04:50:10.742Z,-2.17
2023-01-30T04:53:13.651Z,-2.07
2023-01-30T04:56:15.780Z,-2.15
2023-01-30T04:59:18.619Z,-2.20
2023-01-30T05:02:24.028Z,-2.18
2023-01-30T05:05:29.520Z,-2.27
2023-01-30T05:08:32.316Z,-2.15
2023-01-30T05:11:44.286Z,-2.09
2023-01-30T05:14:50.355Z,-2.09
2023-01-30T05:17:54.877Z,-2.09
2023-01-30T05:21:06.062Z,-2.13
2023-01-30T05:24:09.316Z,-2.12
2023-01-30T05:27:11.568Z,-2.18
2023-01-30T05:30:13.971Z,-2.19
2023-01-30T05:33:16.108Z,-2.19
2023-01-30T05:36:20.508Z,-2.14
2023-01-30T05:39:24.677Z,-2.26
2023-01-30T05:42:37.787Z,-2.22
2023-01-30T05:45:41.651Z,-2.22
2023-01-30T05:48:44.925Z,-2.21
2023-01-30T05:51:47.251Z,-2.26
2023-01-30T05:54:51.422Z,-2.18
2023-01-30T05:57:53.957Z,-2.18
2023-01-30T06:01:01.768Z,-2.03
2023-01-30T06:04:03.921Z,-2.02
2023-01-30T06:07:06.194Z,-1.99
2023-01-30T06:10:09.215Z,-2.15
2023-01-30T06:13:14.250Z,-1.96
2023-01-30T06:16:23.889Z,-1.96
2023-01-30T06:23:49.854Z,-1.89
2023-01-30T06:26:57.823Z,-1.94
2023-01-30T06:30:13.324Z,-1.98
2023-01-30T06:33:40.474Z,-1.86
2023-01-30T06:37:02.715Z,-1.85
2023-01-30T06:40:11.230Z,-1.90
2023-01-30T06:43:44.859Z,-1.85
2023-01-30T06:46:51.312Z,-1.75
2023-01-30T06:50:07.603Z,-1.66
2023-01-30T06:53:24.641Z,-1.64
2023-01-30T06:56:37.093Z,-1.73
2023-01-30T06:59:55.751Z,-1.62
2023-01-30T07:03:12.561Z,-1.79
2023-01-30T07:06:26.610Z,-1.60
2023-01-30T07:09:35.430Z,-1.64
2023-01-30T07:12:47.056Z,-1.69
2023-01-30T07:16:05.441Z,-1.61
2023-01-30T07:19:07.907Z,-1.61
2023-01-30T07:22:09.900Z,-1.58
2023-01-30T07:25:27.418Z,-1.49
2023-01-30T07:28:40.341Z,-1.51
2023-01-30T07:31:45.621Z,-1.49
2023-01-30T07:34:55.983Z,-1.54
2023-01-30T07:38:11.872Z,-1.50
2023-01-30T07:41:20.999Z,-1.35
2023-01-30T07:44:34.635Z,-1.45
2023-01-30T07:47:36.873Z,-1.39
2023-01-30T07:50:39.652Z,-1.36
2023-01-30T07:53:41.523Z,-1.24
2023-01-30T07:56:46.132Z,-1.28
2023-01-30T07:59:57.051Z,-1.28
2023-01-30T08:02:59.422Z,-1.26
2023-01-30T08:06:04.964Z,-1.26
2023-01-30T08:09:07.960Z,-1.23
2023-01-30T08:12:09.712Z,-1.19
2023-01-30T08:15:12.018Z,-1.14
2023-01-30T08:18:14.261Z,-1.07
2023-01-30T08:21:16.496Z,-1.03
2023-01-30T08:24:18.505Z,-0.88
2023-01-30T08:27:20.988Z,-0.84
2023-01-30T08:30:23.528Z,-0.91
2023-01-30T08:33:26.062Z,-0.90
2023-01-30T08:36:28.251Z,-0.82
2023-01-30T08:39:31.868Z,-0.74
2023-01-30T08:42:35.614Z,-0.66
2023-01-30T08:45:37.496Z,-0.66
2023-01-30T08:48:49.937Z,-0.66
2023-01-30T08:52:18.092Z,-0.52
2023-01-30T08:55:25.186Z,-0.34
2023-01-30T08:58:34.461Z,-0.35
2023-01-30T09:01:51.242Z,-0.39
2023-01-30T09:05:06.716Z,-0.29
2023-01-30T09:08:25.904Z,-0.23
2023-01-30T09:11:47.802Z,-0.09
2023-01-30T09:14:55.750Z,-0.03
2023-01-30T09:18:10.112Z,-0.01
2023-01-30T09:21:18.013Z,-0.11
2023-01-30T09:24:39.097Z,-0.05
2023-01-30T09:27:53.063Z,0.11
2023-01-30T09:31:10.507Z,0.05
2023-01-30T09:34:17.274Z,0.00
2023-01-30T09:37:44.358Z,-0.03
2023-01-30T09:41:19.039Z,0.06
2023-01-30T09:44:48.381Z,0.14
2023-01-30T09:48:33.312Z,0.19
2023-01-30T09:52:41.789Z,0.26
2023-01-30T09:55:51.791Z,0.24
2023-01-30T09:59:25.822Z,0.39
2023-01-30T10:02:45.900Z,0.39
2023-01-30T10:06:02.051Z,0.39
2023-01-30T10:09:34.432Z,0.44
2023-01-30T10:13:08.212Z,0.63
2023-01-30T10:16:29.321Z,0.70
2023-01-30T10:19:52.501Z,0.75
2023-01-30T10:23:16.051Z,0.90
2023-01-30T10:26:25.851Z,0.89
2023-01-30T10:29:40.651Z,1.03
2023-01-30T10:33:12.360Z,1.20
2023-01-30T10:36:47.523Z,1.22
2023-01-30T10:40:28.845Z,1.43
2023-01-30T10:44:24.915Z,1.48
2023-01-30T10:48:42.492Z,1.64
2023-01-30T10:53:04.685Z,1.76
2023-01-30T10:57:15.963Z,1.89
2023-01-30T11:08:45.176Z,2.28
2023-01-30T11:20:30.476Z,2.44
2023-01-30T11:24:39.255Z,2.26
2023-01-30T11:28:28.367Z,2.28
2023-01-30T11:32:15.116Z,2.27
2023-01-30T11:43:41.489Z,2.24
2023-01-30T11:46:57.813Z,2.21
2023-01-30T11:50:35.230Z,2.21
2023-01-30T11:54:01.630Z,2.18
2023-01-30T11:57:06.251Z,2.12
2023-01-30T12:00:20.209Z,2.20
2023-01-30T12:03:25.731Z,2.24
2023-01-30T12:06:35.409Z,2.32
2023-01-30T12:09:40.762Z,2.33
2023-01-30T12:13:46.249Z,2.28
2023-01-30T12:17:07.734Z,2.31
2023-01-30T12:20:40.838Z,2.32
2023-01-30T12:23:52.741Z,2.27
2023-01-30T12:27:19.565Z,2.25
2023-01-30T12:30:30.487Z,2.21
2023-01-30T12:33:34.965Z,2.20
2023-01-30T12:36:51.576Z,2.31
2023-01-30T12:40:49.689Z,2.29
2023-01-30T12:44:40.676Z,2.31
2023-01-30T12:48:10.486Z,2.30
2023-01-30T12:51:52.540Z,2.23
2023-01-30T12:56:21.450Z,2.37
2023-01-30T13:00:40.100Z,2.34
2023-01-30T13:04:56.252Z,2.37
2023-01-30T13:08:41.273Z,2.49
2023-01-30T13:16:47.249Z,2.51
2023-01-30T13:20:34.304Z,2.48
2023-01-30T13:24:11.152Z,2.46
2023-01-30T13:27:45.219Z,2.49
2023-01-30T13:31:55.938Z,2.43
2023-01-30T13:35:20.433Z,2.41
2023-01-30T13:39:05.991Z,2.56
2023-01-30T13:42:56.950Z,2.56
2023-01-30T13:46:03.333Z,2.52
2023-01-30T13:49:30.495Z,2.51
2023-01-30T13:52:44.482Z,2.58
2023-01-30T13:55:57.133Z,2.59
2023-01-30T13:59:10.103Z,2.55
2023-01-30T14:02:23.576Z,2.53
2023-01-30T14:06:01.063Z,2.51
2023-01-30T14:09:19.912Z,2.46
2023-01-30T14:12:28.552Z,2.37
2023-01-30T14:15:31.871Z,2.37
2023-01-30T14:18:36.250Z,2.33
2023-01-30T14:21:39.810Z,2.24
2023-01-30T14:24:41.527Z,2.22
2023-01-30T14:27:43.430Z,2.25
2023-01-30T14:36:20.798Z,2.25
2023-01-30T14:52:56.445Z,1.92
2023-01-30T14:56:04.178Z,2.00
2023-01-30T15:04:30.842Z,1.94
2023-01-30T15:12:43.237Z,1.83
2023-01-30T15:16:48.657Z,1.78
2023-01-30T15:43:43.462Z,1.30
2023-01-30T15:48:16.945Z,1.24
2023-01-30T15:53:08.608Z,1.00
2023-01-30T15:56:17.741Z,1.08
2023-01-30T15:59:36.503Z,1.08
2023-01-30T16:02:38.349Z,0.98
2023-01-30T16:05:51.197Z,0.99
2023-01-30T16:09:00.940Z,1.02
2023-01-30T16:12:02.895Z,1.06
2023-01-30T16:15:18.855Z,1.00
2023-01-30T16:18:21.614Z,1.04
2023-01-30T16:21:33.471Z,0.96
2023-01-30T16:24:37.396Z,1.04
2023-01-30T16:27:41.078Z,0.99
2023-01-30T16:30:43.190Z,0.94
2023-01-30T16:33:52.541Z,1.08
2023-01-30T16:36:55.093Z,1.03
2023-01-30T16:40:13.217Z,1.07
2023-01-30T16:43:22.901Z,1.05
2023-01-30T16:46:51.876Z,1.05
2023-01-30T16:49:56.294Z,0.90
2023-01-30T16:53:03.816Z,0.92
2023-01-30T16:56:28.149Z,0.92
2023-01-30T16:59:44.709Z,0.80
2023-01-30T17:03:00.386Z,0.92
2023-01-30T17:06:37.704Z,0.92
2023-01-30T17:09:55.466Z,0.79
2023-01-30T17:13:07.211Z,0.80
2023-01-30T17:16:23.712Z,0.92
2023-01-30T17:19:25.505Z,0.84
2023-01-30T17:22:27.439Z,0.83
2023-01-30T17:26:05.065Z,0.96
2023-01-30T17:33:27.227Z,0.91
2023-01-30T17:42:27.065Z,0.96
2023-01-30T17:47:16.937Z,1.08
2023-01-30T17:54:56.610Z,1.05
2023-01-30T17:58:33.212Z,1.11
2023-01-30T18:09:15.818Z,1.30
2023-01-30T18:12:17.486Z,1.19
2023-01-30T18:15:19.492Z,1.25
2023-01-30T18:18:21.700Z,1.29
2023-01-30T18:21:23.763Z,1.35
2023-01-30T18:24:25.872Z,1.33
2023-01-30T18:27:27.984Z,1.48
2023-01-30T18:55:14.487Z,1.59
2023-01-30T18:58:16.484Z,1.71
2023-01-30T19:01:23.179Z,1.68
2023-01-30T19:04:25.186Z,1.70
2023-01-30T19:07:27.281Z,1.62
2023-01-30T19:10:30.966Z,1.69
2023-01-30T19:13:32.948Z,1.64
2023-01-30T19:16:36.938Z,1.79
2023-01-30T19:19:38.811Z,1.79
2023-01-30T19:22:40.963Z,1.77
2023-01-30T19:26:11.490Z,1.71
2023-01-30T19:29:50.697Z,1.79
2023-01-30T19:41:25.976Z,1.76
2023-01-30T19:44:28.002Z,1.89
2023-01-30T19:47:33.498Z,1.88
2023-01-30T19:50:38.704Z,1.87
2023-01-30T19:53:42.854Z,1.88
2023-01-30T20:01:12.382Z,1.86
2023-01-30T20:04:14.752Z,1.81
2023-01-30T20:22:13.055Z,1.89
2023-01-30T20:25:14.921Z,1.91
2023-01-30T20:28:16.530Z,1.90
2023-01-30T20:31:21.803Z,1.93
2023-01-30T20:34:23.432Z,1.91
2023-01-30T20:37:25.854Z,1.90
2023-01-30T20:40:27.871Z,1.89
2023-01-30T20:43:33.646Z,1.93
2023-01-30T20:46:43.854Z,1.92
2023-01-30T20:49:45.455Z,1.94
2023-01-30T20:52:48.911Z,1.93
2023-01-30T20:55:50.463Z,1.94
2023-01-30T20:58:52.391Z,1.93
2023-01-30T21:01:54.422Z,1.97
2023-01-30T21:04:56.046Z,1.94
2023-01-30T21:07:57.558Z,1.97
2023-01-30T21:11:06.941Z,1.99
2023-01-30T21:14:08.498Z,1.98
2023-01-30T21:17:10.004Z,1.99
2023-01-30T21:20:11.709Z,1.97
2023-01-30T21:23:13.234Z,1.99
2023-01-30T21:26:16.934Z,1.98
2023-01-30T21:29:21.825Z,2.00
2023-01-30T21:32:23.474Z,1.98
2023-01-30T21:35:25.107Z,1.94
2023-01-30T21:38:46.732Z,1.99
2023-01-30T21:41:51.129Z,2.00
2023-01-30T21:44:52.683Z,2.00
2023-01-30T21:47:54.411Z,2.01
2023-01-30T21:50:56.375Z,2.04
2023-01-30T21:54:00.149Z,2.00
2023-01-30T21:57:02.430Z,2.01
2023-01-30T22:00:04.593Z,2.01
2023-01-30T22:03:06.848Z,2.03
2023-01-30T22:06:10.317Z,2.01
2023-01-30T22:09:14.571Z,2.01
2023-01-30T22:12:16.279Z,1.98
2023-01-30T22:15:21.732Z,1.99
2023-01-30T22:18:23.732Z,2.00
2023-01-30T22:21:27.751Z,2.01
2023-01-30T22:24:29.323Z,1.94
2023-01-30T22:27:30.857Z,1.93
2023-01-30T22:30:32.402Z,1.99
2023-01-30T22:33:34.719Z,1.96
2023-01-30T22:36:37.177Z,2.00
2023-01-30T22:39:40.291Z,2.00
2023-01-30T22:42:46.747Z,1.98
2023-01-30T22:45:48.299Z,2.00
2023-01-30T22:48:49.812Z,1.98
2023-01-30T22:51:51.345Z,1.99
2023-01-30T22:54:52.888Z,2.02
2023-01-30T22:57:54.425Z,2.01
2023-01-30T23:01:02.978Z,1.98
2023-01-30T23:04:13.657Z,2.00
2023-01-30T23:07:17.733Z,2.00
2023-01-30T23:10:19.401Z,2.01
2023-01-30T23:13:21.001Z,2.02
2023-01-30T23:16:26.051Z,2.02
2023-01-30T23:19:27.641Z,2.03
2023-01-30T23:22:29.235Z,2.01
2023-01-30T23:25:30.766Z,2.03
2023-01-30T23:28:32.411Z,1.99
2023-01-30T23:31:35.485Z,2.00
2023-01-30T23:34:37.606Z,2.01
2023-01-30T23:37:57.653Z,2.00
2023-01-30T23:41:13.843Z,2.01
2023-01-30T23:44:15.373Z,1.95
2023-01-30T23:47:16.966Z,1.98
2023-01-30T23:50:18.543Z,1.97
2023-01-30T23:53:20.115Z,1.96
2023-01-30T23:56:23.657Z,1.95
2023-01-30T23:59:25.203Z,1.99
